KRNH

New Richmond Regional Airport

New Richmond, Wisconsin, USA
METAR KRNH 221735Z AUTO 21004KT 10SM OVC016 18/12 A3010 RMK AO2 T01750124
Observed Flight Rules
May-22 @ 17:35 UTC (13 minutes ago) Marginal Visual Flight Rules
Wind Visibility Clouds
210° at 4 knots 10 miles
  • Overcast at 1,600' AGL
Temperatures Readings
Current 18°C / 64°F
Dewpoint 12°C / 54°F
Humidity 68%
Altimeter 30.1" Hg
Pressure 1019 hPa
Elevation 304
METAR KRNH 221735Z AUTO 21004KT 10SM OVC016 18/12 A3010 RMK AO2 T01750124
Observed Flight Rules
May-22 @ 17:35 UTC
(13 minutes ago)
MVFR
Wind Visibility
210° at 4 knots 10 miles
Clouds
  • Overcast at 1,600' AGL
Temperature Dewpoint
18°C / 64°F 12°C / 54°F
Humidity Altimeter Pressure
68% 30.1" Hg 1019 hPa